Portada
METAR-TAF:

METAR-TAF

Aeroports :

Yangon, Myanmar

latitud: 16-46N, longitud: 096-10E, altitud: 14 m

Observació

L'informe es va fer fa 37 minuts, a les 17:00 UTC
Vent 6 kt del Oest/Sud-Oest
Temperatura 27°C
Humitat 70%
Pressió 1010 hPa
Visibilitat: 7000 m

METAR: VYYY 211700Z 24006KT 7000 NSC 27/21 Q1010

Hora: 00:07 (17:37 UTC)

Pronòstic

L'informe es va fer fa 6 hores i 37 minuts, a les 11:00 UTC
Pronòstic vàlid del 21 a les 12 UTC al 22 a les 12 UTC
Vent 8 kt del Oest
Visibilitat: 8000 m
Núvols disperses a una alçada de 2000 ft
Evolucionant progressivament
l' 21 a les 12 UTC al 21 a les 15 UTC
Vent 5 kt del Nord-Oest, variant entre Nord/Nord-Oest i Oest
Visibilitat: 6000 m
Escasses núvols a una alçada de 12000 ft
calitja
Evolucionant progressivament
l' 21 a les 23 UTC al 22 a les 01 UTC
Visibilitat: 1000 m
Boira superficial

TAF: VYYY 211100Z 2112/2212 26008KT 8000 SCT020 BECMG 2112/2115 32005KT 340V260 6000 HZ FEW120 BECMG 2123/2201 1000 MIFG

Observacions i pronòstics meteorològics de més de 4000 aeroports (METAR i TAF).

Les estacions disponibles són els punts grocs i vermells al mapa.

Posi el ratolí al punt desitjat per veure el nom de l'estació.

Feu clic per veure les observacions i els pronòstics meteorològics.

Per canviar el mapa: feu clic els botons verds amb una creu de color negre per apropar; al botó verd amb un guió per allunyar la imatge; o en les fletxes verdes per a mapes adjacents.


METAR-TAF: